»·PEaware :: N6750H KABQ-KIWA

N6750H :: KABQ-KIWA

FLIGHT INFORMATION

Flight Status: Arrived
Operator: Privately registered:
United States
More flights under this callsign
Pilot: Yoel G. (22311)
Aircraft: Unknown
(DA62)
More flights by this aircraft type
Origin: KABQ Albuquerque Intl Sunport
United States
Destination: KIWA Williams Gateway
United States
More flights between these airports :: More routes between these airports
Route: ++ABQ3+ ABQ V190 ZERLO
File this flight plan on PilotEdge
Remarks:
Altitude:
(Current/Filed)
14,000ft
Speed:
(Current/Filed)
201kts
Departed: 09-Jan-19 08:31 PM
Arrived: 09-Jan-19 10:18 PM
Distance/Time
Traveled:
272nm/1:46
Distance/Time
To Go:
Arrived

Flight Plot

Page will automatically refresh every two minutes.

Flight plan parsing failed; only flown route is shown


Map Options




Map Legend


Flown Route
Filed Route
Departure Airport
Arrival Airport
Navaid (VOR, NDB)
Fix

Horizontal Profiles

Position Reports

Time Latitude Longitude Heading Altitude Ground
Speed
09-Jan-19 20:02 35.035799 -106.619169 180 5307ft 0kts
09-Jan-19 20:03 35.035799 -106.619169 180 5307ft 0kts
09-Jan-19 20:04 35.035799 -106.619169 180 5307ft 0kts
09-Jan-19 20:05 35.035799 -106.619169 180 5307ft 0kts
09-Jan-19 20:06 35.035799 -106.619169 180 5307ft 0kts
09-Jan-19 20:07 35.035799 -106.619169 180 5307ft 0kts
09-Jan-19 20:08 35.035799 -106.619169 180 5307ft 0kts
09-Jan-19 20:09 35.035799 -106.619169 180 5307ft 0kts
09-Jan-19 20:10 35.035799 -106.619169 180 5307ft 0kts
09-Jan-19 20:11 35.035799 -106.619169 180 5307ft 0kts
09-Jan-19 20:12 35.035799 -106.619169 180 5307ft 0kts
09-Jan-19 20:13 35.035799 -106.619169 180 5307ft 0kts
09-Jan-19 20:16 35.035799 -106.619169 180 5307ft 0kts
09-Jan-19 20:17 35.035799 -106.619169 180 5307ft 0kts
09-Jan-19 20:18 35.035799 -106.619169 180 5307ft 0kts
09-Jan-19 20:19 35.035799 -106.619169 180 5307ft 0kts
09-Jan-19 20:20 35.035799 -106.619169 180 5307ft 0kts
09-Jan-19 20:21 35.035799 -106.619169 180 5307ft 0kts
09-Jan-19 20:22 35.034511 -106.618667 138 5309ft 8kts
09-Jan-19 20:23 35.032254 -106.620658 224 5309ft 12kts
09-Jan-19 20:24 35.029535 -106.623941 224 5309ft 14kts
09-Jan-19 20:25 35.026335 -106.627807 224 5301ft 19kts
09-Jan-19 20:26 35.023948 -106.631121 150 5286ft 0kts
09-Jan-19 20:27 35.023948 -106.631121 150 5286ft 0kts
09-Jan-19 20:28 35.022873 -106.631150 136 5286ft 0kts
09-Jan-19 20:29 35.022487 -106.630401 53 5291ft 13kts
09-Jan-19 20:30 35.041454 -106.607170 37 5644ft 132kts
09-Jan-19 20:31 35.065846 -106.617856 317 7309ft 96kts
09-Jan-19 20:32 35.070086 -106.645430 255 8692ft 93kts
09-Jan-19 20:33 35.064797 -106.673656 257 9944ft 94kts
09-Jan-19 20:34 35.059820 -106.704973 258 11269ft 95kts
09-Jan-19 20:35 35.054751 -106.739127 258 12377ft 107kts
09-Jan-19 20:36 35.049631 -106.774443 258 13592ft 105kts
09-Jan-19 20:37 35.043409 -106.815273 253 14021ft 149kts
09-Jan-19 20:38 35.030302 -106.868127 252 14010ft 170kts
09-Jan-19 20:39 35.016102 -106.923874 252 14022ft 172kts
09-Jan-19 20:40 35.001803 -106.979733 251 14034ft 172kts
09-Jan-19 20:41 34.987438 -107.035698 251 14038ft 172kts
09-Jan-19 20:43 34.973131 -107.091311 251 14039ft 172kts
09-Jan-19 20:44 34.958764 -107.147049 251 14039ft 171kts
09-Jan-19 20:45 34.944454 -107.202441 251 14038ft 171kts
09-Jan-19 20:46 34.930130 -107.257770 251 14037ft 170kts
09-Jan-19 20:47 34.915937 -107.312485 250 14098ft 168kts
09-Jan-19 20:48 34.901778 -107.366951 250 14108ft 168kts
09-Jan-19 20:49 34.887576 -107.421469 250 14121ft 169kts
09-Jan-19 20:50 34.873270 -107.476253 250 14125ft 169kts
09-Jan-19 20:51 34.859027 -107.530683 250 14124ft 169kts
09-Jan-19 20:52 34.844736 -107.585200 250 14122ft 169kts
09-Jan-19 20:53 34.830406 -107.639761 250 14122ft 169kts
09-Jan-19 20:54 34.816047 -107.694313 250 14130ft 169kts
09-Jan-19 20:55 34.801605 -107.749074 250 14136ft 169kts
09-Jan-19 20:56 34.787190 -107.803613 250 14138ft 169kts
09-Jan-19 20:57 34.772703 -107.858325 250 14137ft 169kts
09-Jan-19 20:58 34.758226 -107.912878 250 14137ft 169kts
09-Jan-19 20:59 34.743732 -107.967388 250 14136ft 169kts
09-Jan-19 21:00 34.729175 -108.022020 250 14135ft 169kts
09-Jan-19 21:01 34.714644 -108.076449 250 14134ft 169kts
09-Jan-19 21:02 34.700003 -108.131184 249 14125ft 170kts
09-Jan-19 21:02 34.687757 -108.176877 249 14128ft 170kts
09-Jan-19 21:04 34.670616 -108.240703 249 14130ft 170kts
09-Jan-19 21:05 34.655846 -108.295574 250 14130ft 170kts
09-Jan-19 21:05 34.643498 -108.341368 250 14129ft 170kts
09-Jan-19 21:06 34.628733 -108.396023 250 14129ft 170kts
09-Jan-19 21:08 34.611414 -108.459993 250 14128ft 170kts
09-Jan-19 21:08 34.599050 -108.505570 249 14123ft 170kts
09-Jan-19 21:09 34.584175 -108.560302 250 14106ft 171kts
09-Jan-19 21:10 34.569273 -108.615023 250 14086ft 171kts
09-Jan-19 21:11 34.554249 -108.670073 249 14071ft 171kts
09-Jan-19 21:12 34.539230 -108.725013 249 14059ft 171kts
09-Jan-19 21:13 34.524227 -108.779778 249 14057ft 171kts
09-Jan-19 21:14 34.509155 -108.834683 249 14055ft 171kts
09-Jan-19 21:15 34.494070 -108.889528 249 14053ft 171kts
09-Jan-19 21:16 34.478957 -108.944367 249 14057ft 171kts
09-Jan-19 21:17 34.463832 -108.999168 249 14054ft 171kts
09-Jan-19 21:18 34.448682 -109.053932 248 14051ft 172kts
09-Jan-19 21:19 34.433449 -109.108874 248 14048ft 172kts
09-Jan-19 21:20 34.417024 -109.163544 245 14047ft 173kts
09-Jan-19 21:21 34.398951 -109.217609 244 14047ft 173kts
09-Jan-19 21:22 34.380738 -109.271786 244 14051ft 173kts
09-Jan-19 21:23 34.362488 -109.325973 244 14054ft 173kts
09-Jan-19 21:24 34.344257 -109.380012 244 14056ft 174kts
09-Jan-19 21:25 34.325960 -109.434152 244 14058ft 174kts
09-Jan-19 21:26 34.307643 -109.488256 244 14059ft 174kts
09-Jan-19 21:27 34.289273 -109.542421 244 14060ft 174kts
09-Jan-19 21:28 34.270903 -109.596492 244 14061ft 174kts
09-Jan-19 21:29 34.252446 -109.650724 244 14061ft 174kts
09-Jan-19 21:30 34.233944 -109.704993 244 14070ft 174kts
09-Jan-19 21:31 34.215479 -109.759063 244 14073ft 174kts
09-Jan-19 21:32 34.196916 -109.813320 244 14073ft 174kts
09-Jan-19 21:33 34.178363 -109.867464 244 14074ft 174kts
09-Jan-19 21:34 34.159767 -109.921634 244 14073ft 174kts
09-Jan-19 21:35 34.141181 -109.975685 244 14072ft 174kts
09-Jan-19 21:36 34.122500 -110.029913 244 14071ft 174kts
09-Jan-19 21:37 34.103809 -110.084076 244 14070ft 174kts
09-Jan-19 21:38 34.085178 -110.137967 244 14070ft 174kts
09-Jan-19 21:39 34.066534 -110.191764 244 14068ft 174kts
09-Jan-19 21:40 34.047802 -110.245726 244 14068ft 174kts
09-Jan-19 21:41 34.029091 -110.299582 244 14067ft 174kts
09-Jan-19 21:42 34.010377 -110.353376 244 14067ft 174kts
09-Jan-19 21:43 33.991647 -110.407127 244 14066ft 174kts
09-Jan-19 21:44 33.972884 -110.460878 244 14064ft 174kts
09-Jan-19 21:45 33.954147 -110.514469 244 14063ft 174kts
09-Jan-19 21:46 33.935345 -110.568147 244 14063ft 174kts
09-Jan-19 21:47 33.916552 -110.621702 244 14062ft 173kts
09-Jan-19 21:48 33.897617 -110.675552 243 14066ft 174kts
09-Jan-19 21:49 33.878671 -110.729359 243 14074ft 175kts
09-Jan-19 21:50 33.859696 -110.783160 243 14072ft 175kts
09-Jan-19 21:51 33.840572 -110.837283 243 14066ft 175kts
09-Jan-19 21:52 33.821467 -110.891260 243 14059ft 175kts
09-Jan-19 21:53 33.802399 -110.945065 243 14144ft 171kts
09-Jan-19 21:54 33.783463 -110.998369 243 14156ft 174kts
09-Jan-19 21:55 33.764362 -111.052061 243 14168ft 175kts
09-Jan-19 21:56 33.745208 -111.105811 243 14167ft 175kts
09-Jan-19 21:57 33.727146 -111.156405 243 14149ft 176kts
09-Jan-19 21:58 33.707745 -111.210649 243 14120ft 176kts
09-Jan-19 21:59 33.688373 -111.264735 243 14093ft 176kts
09-Jan-19 22:00 33.669001 -111.319040 243 14070ft 176kts
09-Jan-19 22:01 33.649572 -111.373151 243 14054ft 176kts
09-Jan-19 22:02 33.630095 -111.427275 243 14049ft 176kts
09-Jan-19 22:03 33.614060 -111.484322 251 13625ft 194kts
09-Jan-19 22:04 33.607379 -111.514342 252 13293ft 196kts
09-Jan-19 22:05 33.584027 -111.601976 238 11139ft 188kts
09-Jan-19 22:06 33.568038 -111.660293 251 10077ft 182kts
09-Jan-19 22:07 33.552974 -111.715858 251 8397ft 175kts
09-Jan-19 22:08 33.536876 -111.770425 251 6156ft 174kts
09-Jan-19 22:09 33.519417 -111.820874 221 4930ft 158kts
09-Jan-19 22:10 33.478063 -111.828619 179 4190ft 146kts
09-Jan-19 22:11 33.439066 -111.828835 173 4142ft 142kts
09-Jan-19 22:12 33.414233 -111.795391 118 3676ft 125kts
09-Jan-19 22:13 33.395827 -111.766693 129 3346ft 105kts
09-Jan-19 22:14 33.365907 -111.729497 132 2305ft 167kts
09-Jan-19 22:15 33.338084 -111.696771 133 1861ft 101kts
09-Jan-19 22:16 33.319805 -111.675425 131 1450ft 85kts
09-Jan-19 22:17 33.311247 -111.666906 235 1352ft 0kts
09-Jan-19 22:18 33.315249 -111.672092 315 1345ft 30kts
09-Jan-19 22:19 33.315446 -111.673052 135 1343ft 11kts
09-Jan-19 22:20 33.312969 -111.671857 233 1345ft 13kts
09-Jan-19 22:21 33.312408 -111.671759 124 1345ft 0kts

Navigation Log

Ident Type
Flight plan parsing failed, navigation log unavailable